South Padre Island, TX (78597)

3:51 PM CST on February 23, 2017 (GMT -0600)
Kings Court | | Change Station

Elev 13 ft 26.13 °N, 97.17 °W | Updated 4 minutes ago

Clear
Clear
77.9 °F
Feels Like 80 °F
N
5.6
Wind Variable Wind from South
Gusts 9.9 mph

Today
High -- | Low -- °F
--% Chance of Precip.
Yesterday
High -- | Low -- °F
Precip. -- in
Pressure 29.60 in
Visibility 10.0 miles
Clouds Clear
Heat Index 80 °F
Dew Point 68 °F
Humidity 72%
Rainfall 0.00 in
Snow Depth Not available.
6:57 AM 6:26 PM
Waning Crescent, 8% visible
METAR KPIL 232053Z AUTO 16019G25KT 10SM CLR 32/14 A2960 RMK AO2 PK WND 15026/2020 SLP022 T03170139 56037
Pressure 29.60 in
Visibility 10.0 miles
Clouds Clear
Heat Index 80 °F
Dew Point 68 °F
Humidity 72%
Rainfall 0.00 in
Snow Depth Not available.
6:57 AM 6:26 PM
Waning Crescent, 8% visible
METAR KPIL 232053Z AUTO 16019G25KT 10SM CLR 32/14 A2960 RMK AO2 PK WND 15026/2020 SLP022 T03170139 56037

Get Your Daily Forecast Email!

Thanks for signing up!

Be on the lookout for a verification email in your inbox.

You'll start receiving the daily forecast at 8 AM.

×

10-Day Weather Forecast

Almanac

Astronomy

Feb. 23, 2017 Rise Set
Actual Time
Civil Twilight
Nautical Twilight
Astronomical Twilight
Moon
Length of Visible Light
Length of Day
Tomorrow will be .
, % of the Moon is Illuminated

Today's Extremes

State Highs State Lows

Community

WunderPhotos

Upload Photos

1,962,540 photos uploaded!

WunderBlog® & News

Nearby

Air Quality

  Air Quality AQ Index Pollutant
Not available.

Snow Depth

Station Depth Elevation

Earthquake Activity

City Distance Mag. Time & Date
Minimum magnitude displayed is 2.5.

Coastal Water Temperatures

Place Temperature

Stations

Nearby Weather Stations

Station Location Temp. Windchill Dew Point Humidity Wind Precip. Elev Updated Type
                   

Watches & Warnings

There are currently no watches in effect.